createdAt,value
2019-05-20T00:01:36.994Z,68.10
2019-05-20T00:04:05.642Z,68.20
2019-05-20T00:06:36.622Z,68.20
2019-05-20T00:09:06.129Z,68.30
2019-05-20T00:11:34.899Z,68.10
2019-05-20T00:14:03.295Z,67.90
2019-05-20T00:16:31.961Z,67.70
2019-05-20T00:19:00.657Z,67.60
2019-05-20T00:21:29.054Z,67.60
2019-05-20T00:23:57.727Z,67.50
2019-05-20T00:26:26.136Z,67.60
2019-05-20T00:28:54.521Z,67.60
2019-05-20T00:31:23.186Z,67.10
2019-05-20T00:33:51.587Z,67.70
2019-05-20T00:36:20.028Z,68.10
2019-05-20T00:38:50.394Z,68.10
2019-05-20T00:41:19.518Z,68.20
2019-05-20T00:43:47.922Z,67.90
2019-05-20T00:46:16.662Z,67.70
2019-05-20T00:48:45.060Z,68.00
2019-05-20T00:51:13.444Z,67.90
2019-05-20T00:53:42.217Z,67.90
2019-05-20T00:56:10.618Z,67.70
2019-05-20T00:58:40.219Z,67.90
2019-05-20T01:01:08.622Z,68.10
2019-05-20T01:03:37.280Z,68.20
2019-05-20T01:06:05.675Z,68.40
2019-05-20T01:08:34.462Z,68.30
2019-05-20T01:11:03.158Z,68.20
2019-05-20T01:13:31.557Z,68.40
2019-05-20T01:16:00.322Z,68.40
2019-05-20T01:18:29.011Z,68.40
2019-05-20T01:20:58.552Z,68.50
2019-05-20T01:23:26.982Z,68.30
2019-05-20T01:25:55.392Z,68.60
2019-05-20T01:28:24.093Z,68.60
2019-05-20T01:30:52.526Z,68.70
2019-05-20T01:33:20.940Z,68.90
2019-05-20T01:35:49.340Z,69.10
2019-05-20T01:38:18.023Z,69.10
2019-05-20T01:40:46.534Z,69.20
2019-05-20T01:43:16.014Z,69.20
2019-05-20T01:45:45.406Z,69.40
2019-05-20T01:48:13.808Z,69.40
2019-05-20T01:50:42.201Z,69.60
2019-05-20T01:53:10.984Z,69.70
2019-05-20T01:55:39.384Z,69.70
2019-05-20T01:58:08.275Z,69.80
2019-05-20T02:00:36.816Z,69.70
2019-05-20T02:03:05.198Z,69.70
2019-05-20T02:05:33.593Z,69.70
2019-05-20T02:08:02.029Z,69.80
2019-05-20T02:10:32.001Z,69.90
2019-05-20T02:13:00.455Z,69.90
2019-05-20T02:15:39.273Z,70.10
2019-05-20T02:18:07.666Z,70.00
2019-05-20T02:20:38.185Z,70.00
2019-05-20T02:23:16.637Z,70.10
2019-05-20T02:25:47.260Z,70.10
2019-05-20T02:28:15.812Z,70.40
2019-05-20T02:30:44.730Z,70.40
2019-05-20T02:33:13.480Z,70.50
2019-05-20T02:35:41.988Z,70.50
2019-05-20T02:38:10.458Z,70.60
2019-05-20T02:40:39.339Z,70.60
2019-05-20T02:43:07.750Z,70.50
2019-05-20T02:45:36.823Z,70.70
2019-05-20T02:48:05.599Z,70.60
2019-05-20T02:50:34.596Z,70.50
2019-05-20T02:53:03.313Z,70.50
2019-05-20T02:55:31.694Z,70.90
2019-05-20T02:58:00.184Z,70.80
2019-05-20T03:00:28.730Z,70.60
2019-05-20T03:02:57.115Z,70.80
2019-05-20T03:05:25.511Z,70.80
2019-05-20T03:07:53.921Z,70.80
2019-05-20T03:10:22.325Z,70.90
2019-05-20T03:12:50.976Z,71.00
2019-05-20T03:15:19.584Z,71.10
2019-05-20T03:17:47.986Z,71.10
2019-05-20T03:20:16.559Z,71.20
2019-05-20T03:22:45.540Z,71.30
2019-05-20T03:25:14.881Z,71.40
2019-05-20T03:27:43.735Z,71.30
2019-05-20T03:30:14.207Z,71.30
2019-05-20T03:32:42.683Z,71.40
2019-05-20T03:35:12.892Z,71.50
2019-05-20T03:37:41.929Z,71.70
2019-05-20T03:40:10.738Z,71.80
2019-05-20T03:42:39.452Z,71.90
2019-05-20T03:45:08.423Z,71.90
2019-05-20T03:47:37.079Z,72.00
2019-05-20T03:50:07.573Z,72.10
2019-05-20T03:52:36.010Z,72.20
2019-05-20T03:55:07.751Z,72.30
2019-05-20T03:57:36.216Z,72.30
2019-05-20T04:00:07.478Z,72.50
2019-05-20T04:02:35.882Z,72.40
2019-05-20T04:05:04.782Z,72.50
2019-05-20T04:07:33.194Z,72.50
2019-05-20T04:10:01.911Z,72.50
2019-05-20T04:12:30.691Z,72.50
2019-05-20T04:14:59.110Z,72.60
2019-05-20T04:17:27.518Z,72.50
2019-05-20T04:19:55.929Z,72.60
2019-05-20T04:22:26.344Z,72.70
2019-05-20T04:24:55.061Z,72.80
2019-05-20T04:27:23.473Z,72.90
2019-05-20T04:29:52.023Z,72.90
2019-05-20T04:32:20.648Z,73.00
2019-05-20T04:34:49.136Z,73.00
2019-05-20T04:37:18.319Z,73.00
2019-05-20T04:39:46.736Z,73.00
2019-05-20T04:42:15.191Z,73.10
2019-05-20T04:44:43.644Z,73.10
2019-05-20T04:47:12.245Z,73.10
2019-05-20T04:49:40.742Z,73.10
2019-05-20T04:52:09.218Z,73.00
2019-05-20T04:54:37.731Z,73.00
2019-05-20T04:57:06.131Z,73.00
2019-05-20T04:59:35.533Z,73.00
2019-05-20T05:02:04.181Z,73.00
2019-05-20T05:04:32.622Z,72.90
2019-05-20T05:07:01.452Z,72.90
2019-05-20T05:09:29.863Z,73.00
2019-05-20T05:11:58.279Z,73.00
2019-05-20T05:14:26.994Z,73.10
2019-05-20T05:16:55.729Z,73.10
2019-05-20T05:19:24.521Z,73.10
2019-05-20T05:21:53.440Z,73.00
2019-05-20T05:24:22.305Z,73.00
2019-05-20T05:26:51.185Z,72.80
2019-05-20T05:29:19.634Z,72.60
2019-05-20T05:31:48.364Z,72.70
2019-05-20T05:34:16.760Z,72.50
2019-05-20T05:36:45.186Z,72.50
2019-05-20T05:39:14.231Z,72.70
2019-05-20T05:41:42.914Z,72.60
2019-05-20T05:44:11.643Z,72.40
2019-05-20T05:46:40.052Z,72.50
2019-05-20T05:49:08.443Z,72.50
2019-05-20T05:51:37.060Z,72.40
2019-05-20T05:54:05.464Z,72.50
2019-05-20T05:56:34.267Z,72.40
2019-05-20T05:59:02.770Z,72.60
2019-05-20T06:01:31.196Z,72.50
2019-05-20T06:03:59.855Z,72.50
2019-05-20T06:06:28.586Z,72.70
2019-05-20T06:08:57.278Z,72.60
2019-05-20T06:11:25.968Z,72.60
2019-05-20T06:13:54.408Z,72.50
2019-05-20T06:16:35.825Z,72.40
2019-05-20T06:18:53.186Z,72.20
2019-05-20T06:21:21.700Z,72.40
2019-05-20T06:23:50.322Z,72.40
2019-05-20T06:26:18.714Z,72.50
2019-05-20T06:28:47.579Z,72.50
2019-05-20T06:31:16.254Z,72.70
2019-05-20T06:33:44.909Z,72.70
2019-05-20T06:36:25.972Z,72.60
2019-05-20T06:38:44.615Z,72.20
2019-05-20T06:41:13.376Z,72.20
2019-05-20T06:43:41.983Z,72.20
2019-05-20T06:46:10.379Z,72.20
2019-05-20T06:48:39.152Z,72.10
2019-05-20T06:51:07.814Z,72.10
2019-05-20T06:53:36.662Z,71.90
2019-05-20T06:56:05.687Z,72.00
2019-05-20T06:58:34.478Z,72.10
2019-05-20T07:01:03.267Z,72.00
2019-05-20T07:03:31.761Z,72.00
2019-05-20T07:06:01.048Z,71.80
2019-05-20T07:08:30.108Z,71.90
2019-05-20T07:10:58.983Z,72.10
2019-05-20T07:13:27.470Z,72.20
2019-05-20T07:15:56.140Z,72.10
2019-05-20T07:18:27.343Z,71.90
2019-05-20T07:20:55.037Z,72.00
2019-05-20T07:23:23.459Z,72.10
2019-05-20T07:25:51.901Z,72.30
2019-05-20T07:28:20.450Z,72.30
2019-05-20T07:30:49.334Z,72.30
2019-05-20T07:33:18.619Z,72.50
2019-05-20T07:35:47.374Z,72.50
2019-05-20T07:38:16.261Z,72.60
2019-05-20T07:40:44.963Z,72.60
2019-05-20T07:43:13.446Z,72.70
2019-05-20T07:45:42.281Z,72.80
2019-05-20T07:48:11.016Z,72.90
2019-05-20T07:50:40.286Z,73.00
2019-05-20T07:53:11.582Z,73.00
2019-05-20T07:55:43.225Z,73.00
2019-05-20T07:58:14.023Z,72.90
2019-05-20T08:00:42.512Z,73.00
2019-05-20T08:03:11.050Z,72.60
2019-05-20T08:05:39.470Z,72.80
2019-05-20T08:08:07.879Z,72.10
2019-05-20T08:10:36.495Z,72.10
2019-05-20T08:13:05.221Z,72.00
2019-05-20T08:15:33.620Z,71.30
2019-05-20T08:18:03.056Z,71.30
2019-05-20T08:20:32.794Z,71.10
2019-05-20T08:23:01.516Z,71.00
2019-05-20T08:25:30.511Z,70.70
2019-05-20T08:27:59.210Z,70.40
2019-05-20T08:30:34.098Z,70.50
2019-05-20T08:33:02.790Z,70.50
2019-05-20T08:35:31.597Z,70.10
2019-05-20T08:38:00.297Z,70.20
2019-05-20T08:40:28.750Z,70.40
2019-05-20T08:42:57.217Z,70.70
2019-05-20T08:45:25.614Z,70.50
2019-05-20T08:47:54.925Z,69.80
2019-05-20T08:50:23.334Z,69.50
2019-05-20T08:52:51.739Z,69.10
2019-05-20T08:55:20.263Z,68.80
2019-05-20T08:57:48.724Z,68.40
2019-05-20T09:00:23.933Z,68.60
2019-05-20T09:02:52.576Z,68.80
2019-05-20T09:05:21.295Z,68.40
2019-05-20T09:08:02.377Z,68.70
2019-05-20T09:10:20.968Z,68.50
2019-05-20T09:12:50.023Z,68.30
2019-05-20T09:15:20.657Z,68.00
2019-05-20T09:17:49.308Z,67.80
2019-05-20T09:20:17.836Z,66.90
2019-05-20T09:22:46.245Z,67.30
2019-05-20T09:25:15.110Z,67.30
2019-05-20T09:27:43.628Z,67.00
2019-05-20T09:30:12.815Z,67.20
2019-05-20T09:32:42.965Z,67.50
2019-05-20T09:35:12.267Z,67.60
2019-05-20T09:37:40.739Z,66.80
2019-05-20T09:40:09.765Z,66.70
2019-05-20T09:42:40.829Z,66.10
2019-05-20T09:45:08.643Z,65.80
2019-05-20T09:47:37.236Z,66.40
2019-05-20T09:50:06.179Z,66.60
2019-05-20T09:52:34.621Z,66.60
2019-05-20T09:55:05.279Z,66.40
2019-05-20T09:57:33.693Z,66.70
2019-05-20T10:00:02.586Z,67.20
2019-05-20T10:02:37.277Z,67.50
2019-05-20T10:05:02.297Z,67.60
2019-05-20T10:07:30.840Z,67.50
2019-05-20T10:09:59.634Z,67.70
2019-05-20T10:12:44.652Z,67.80
2019-05-20T10:14:58.175Z,68.10
2019-05-20T10:17:26.887Z,68.50
2019-05-20T10:19:55.286Z,68.50
2019-05-20T10:22:23.695Z,69.00
2019-05-20T10:24:52.124Z,69.10
2019-05-20T10:27:20.542Z,69.40
2019-05-20T10:29:48.942Z,69.40
2019-05-20T10:32:17.375Z,69.00
2019-05-20T10:34:45.863Z,69.30
2019-05-20T10:37:14.730Z,69.00
2019-05-20T10:39:43.138Z,69.40
2019-05-20T10:42:11.554Z,69.20
2019-05-20T10:44:41.999Z,69.40
2019-05-20T10:47:10.396Z,69.60
2019-05-20T10:49:38.884Z,69.40
2019-05-20T10:52:07.681Z,69.50
2019-05-20T10:54:37.034Z,69.80
2019-05-20T10:57:06.074Z,69.90
2019-05-20T10:59:34.485Z,69.80
2019-05-20T11:02:03.056Z,69.90
2019-05-20T11:04:35.287Z,69.60
2019-05-20T11:07:01.856Z,69.60
2019-05-20T11:09:30.280Z,69.40
2019-05-20T11:11:58.928Z,69.40
2019-05-20T11:14:27.334Z,68.90
2019-05-20T11:16:55.798Z,68.80
2019-05-20T11:19:24.487Z,69.30
2019-05-20T11:21:53.186Z,69.10
2019-05-20T11:24:21.899Z,68.50
2019-05-20T11:26:50.295Z,68.90
2019-05-20T11:29:18.889Z,68.60
2019-05-20T11:31:47.905Z,68.70
2019-05-20T11:34:16.332Z,68.40
2019-05-20T11:36:45.022Z,68.20
2019-05-20T11:39:31.230Z,68.00
2019-05-20T11:41:53.217Z,68.50
2019-05-20T11:44:15.682Z,68.90
2019-05-20T11:46:44.371Z,69.10
2019-05-20T11:49:13.080Z,69.20
2019-05-20T11:51:41.759Z,69.30
2019-05-20T11:54:10.411Z,68.80
2019-05-20T11:56:38.861Z,68.60
2019-05-20T11:59:07.328Z,69.20
2019-05-20T12:01:36.439Z,68.70
2019-05-20T12:04:06.035Z,68.60
2019-05-20T12:06:34.718Z,68.90
2019-05-20T12:09:03.574Z,68.50
2019-05-20T12:11:31.993Z,68.20
2019-05-20T12:14:00.450Z,68.40
2019-05-20T12:16:28.867Z,68.80
2019-05-20T12:18:57.276Z,68.50
2019-05-20T12:21:25.951Z,68.60
2019-05-20T12:23:54.627Z,68.90
2019-05-20T12:26:23.061Z,69.30
2019-05-20T12:28:51.529Z,68.80
2019-05-20T12:31:19.959Z,68.80
2019-05-20T12:33:48.375Z,69.30
2019-05-20T12:36:16.780Z,69.00
2019-05-20T12:38:45.203Z,69.20
2019-05-20T12:41:13.938Z,69.30
2019-05-20T12:43:44.879Z,69.50
2019-05-20T12:46:13.185Z,69.10
2019-05-20T12:48:42.650Z,69.10
2019-05-20T12:51:14.363Z,69.10
2019-05-20T12:53:41.583Z,69.50
2019-05-20T12:56:09.983Z,68.90
2019-05-20T12:58:38.419Z,68.80
2019-05-20T13:01:07.356Z,69.70
2019-05-20T13:03:35.751Z,70.00
2019-05-20T13:06:05.127Z,69.90
2019-05-20T13:08:33.615Z,69.80
2019-05-20T13:11:02.002Z,69.70
2019-05-20T13:13:30.711Z,69.60
2019-05-20T13:15:59.599Z,70.00
2019-05-20T13:18:28.262Z,69.70
2019-05-20T13:20:57.024Z,69.90
2019-05-20T13:23:25.442Z,70.10
2019-05-20T13:25:53.881Z,70.60
2019-05-20T13:28:22.526Z,71.00
2019-05-20T13:30:50.989Z,70.60
2019-05-20T13:33:19.409Z,71.40
2019-05-20T13:35:47.812Z,70.90
2019-05-20T13:38:16.295Z,71.40
2019-05-20T13:40:47.110Z,71.40
2019-05-20T13:43:15.112Z,70.90
2019-05-20T13:45:43.544Z,70.40
2019-05-20T13:48:11.995Z,70.50
2019-05-20T13:50:40.481Z,70.40
2019-05-20T13:53:09.777Z,70.50
2019-05-20T13:55:38.193Z,70.00
2019-05-20T13:58:06.597Z,69.60
2019-05-20T14:00:35.088Z,69.90
2019-05-20T14:03:03.479Z,70.30
2019-05-20T14:05:31.914Z,70.20
2019-05-20T14:08:00.985Z,69.70
2019-05-20T14:10:30.327Z,69.50
2019-05-20T14:12:58.892Z,69.70
2019-05-20T14:15:27.857Z,69.90
2019-05-20T14:17:56.633Z,69.80
2019-05-20T14:20:25.033Z,69.90
2019-05-20T14:22:53.482Z,69.90
2019-05-20T14:25:22.019Z,69.90
2019-05-20T14:27:50.426Z,70.00
2019-05-20T14:30:19.270Z,69.60
2019-05-20T14:32:47.879Z,69.50
2019-05-20T14:35:16.293Z,69.50
2019-05-20T14:37:45.236Z,70.00
2019-05-20T14:40:13.877Z,70.30
2019-05-20T14:42:42.297Z,69.90
2019-05-20T14:45:11.064Z,70.50
2019-05-20T14:47:39.521Z,70.30
2019-05-20T14:50:09.055Z,70.30
2019-05-20T14:52:38.346Z,70.30
2019-05-20T14:55:07.184Z,70.10
2019-05-20T14:57:35.648Z,70.10
2019-05-20T15:00:06.924Z,70.30
2019-05-20T15:02:35.439Z,70.60
2019-05-20T15:05:05.358Z,71.00
2019-05-20T15:07:33.834Z,70.90
2019-05-20T15:10:02.541Z,70.90
2019-05-20T15:12:31.086Z,70.90
2019-05-20T15:14:59.626Z,70.80
2019-05-20T15:17:28.074Z,71.10
2019-05-20T15:19:56.477Z,71.10
2019-05-20T15:22:25.238Z,70.90
2019-05-20T15:24:53.646Z,70.90
2019-05-20T15:27:22.045Z,71.30
2019-05-20T15:29:50.471Z,71.50
2019-05-20T15:32:18.867Z,71.60
2019-05-20T15:34:47.375Z,71.60
2019-05-20T15:37:15.818Z,71.70
2019-05-20T15:39:44.536Z,71.70
2019-05-20T15:42:12.983Z,71.70
2019-05-20T15:44:41.927Z,71.80
2019-05-20T15:47:10.610Z,71.80
2019-05-20T15:49:39.168Z,71.50
2019-05-20T15:52:08.097Z,71.40
2019-05-20T15:54:36.520Z,71.60
2019-05-20T15:57:05.268Z,71.40
2019-05-20T15:59:45.672Z,71.70
2019-05-20T16:02:04.294Z,72.10
2019-05-20T16:04:32.972Z,72.20
2019-05-20T16:07:01.425Z,72.10
2019-05-20T16:09:29.865Z,72.60
2019-05-20T16:11:59.893Z,72.40
2019-05-20T16:14:28.672Z,72.30
2019-05-20T16:16:57.065Z,72.30
2019-05-20T16:19:25.473Z,72.30
2019-05-20T16:21:54.311Z,72.20
2019-05-20T16:24:23.010Z,72.40
2019-05-20T16:26:51.413Z,72.50
2019-05-20T16:29:20.974Z,72.50
2019-05-20T16:31:49.397Z,72.40
2019-05-20T16:34:17.866Z,72.50
2019-05-20T16:36:46.565Z,72.60
2019-05-20T16:39:15.296Z,72.50
2019-05-20T16:41:43.779Z,72.70
2019-05-20T16:44:12.227Z,72.70
2019-05-20T16:46:40.634Z,72.60
2019-05-20T16:49:09.101Z,72.70
2019-05-20T16:51:38.290Z,72.80
2019-05-20T16:54:06.705Z,72.70
2019-05-20T16:56:35.392Z,72.60
2019-05-20T16:59:04.470Z,72.40
2019-05-20T17:01:45.475Z,72.20
2019-05-20T17:04:03.199Z,72.20
2019-05-20T17:06:31.652Z,72.40
2019-05-20T17:09:00.096Z,72.40
2019-05-20T17:11:29.160Z,72.60
2019-05-20T17:13:58.112Z,72.50
2019-05-20T17:16:26.837Z,72.50
2019-05-20T17:18:55.246Z,72.60
2019-05-20T17:21:23.672Z,72.80
2019-05-20T17:23:52.087Z,72.80
2019-05-20T17:26:20.549Z,73.10
2019-05-20T17:28:48.979Z,73.30
2019-05-20T17:31:17.394Z,73.10
2019-05-20T17:33:45.800Z,73.20
2019-05-20T17:36:14.270Z,73.00
2019-05-20T17:38:42.671Z,73.20
2019-05-20T17:41:11.492Z,73.00
2019-05-20T17:43:40.077Z,73.00
2019-05-20T17:46:08.768Z,73.00
2019-05-20T17:48:37.163Z,72.90
2019-05-20T17:51:06.957Z,72.80
2019-05-20T17:53:35.765Z,72.80
2019-05-20T17:56:04.628Z,72.70
2019-05-20T17:58:33.554Z,72.90
2019-05-20T18:01:14.980Z,72.90
2019-05-20T18:03:32.090Z,72.80
2019-05-20T18:06:00.862Z,72.90
2019-05-20T18:08:30.921Z,73.10
2019-05-20T18:10:59.333Z,73.00
2019-05-20T18:13:27.781Z,73.20
2019-05-20T18:15:56.639Z,73.20
2019-05-20T18:18:25.067Z,73.10
2019-05-20T18:20:56.480Z,73.20
2019-05-20T18:23:24.243Z,73.40
2019-05-20T18:25:52.666Z,73.30
2019-05-20T18:28:21.086Z,73.30
2019-05-20T18:30:49.904Z,73.10
2019-05-20T18:33:18.332Z,73.10
2019-05-20T18:35:47.397Z,73.10
2019-05-20T18:38:15.787Z,73.00
2019-05-20T18:40:44.210Z,73.10
2019-05-20T18:43:12.710Z,73.30
2019-05-20T18:45:41.178Z,73.30
2019-05-20T18:48:09.588Z,73.40
2019-05-20T18:50:38.055Z,73.70
2019-05-20T18:53:06.797Z,73.90
2019-05-20T18:55:35.208Z,73.90
2019-05-20T18:58:03.667Z,74.00
2019-05-20T19:00:32.083Z,74.10
2019-05-20T19:03:00.806Z,74.10
2019-05-20T19:05:29.248Z,74.20
2019-05-20T19:07:57.646Z,74.10
2019-05-20T19:10:26.360Z,74.00
2019-05-20T19:12:54.858Z,74.30
2019-05-20T19:15:23.663Z,74.30
2019-05-20T19:17:52.352Z,74.40
2019-05-20T19:20:22.988Z,74.30
2019-05-20T19:22:51.160Z,74.20
2019-05-20T19:25:19.570Z,74.20
2019-05-20T19:27:48.024Z,74.20
2019-05-20T19:30:16.592Z,74.20
2019-05-20T19:32:45.066Z,74.40
2019-05-20T19:35:13.876Z,74.60
2019-05-20T19:37:42.580Z,74.70
2019-05-20T19:40:11.615Z,74.90
2019-05-20T19:42:40.373Z,75.10
2019-05-20T19:45:10.236Z,75.10
2019-05-20T19:47:38.643Z,75.30
2019-05-20T19:50:09.403Z,75.20
2019-05-20T19:52:37.877Z,75.30
2019-05-20T19:55:08.102Z,75.30
2019-05-20T19:57:37.193Z,75.20
2019-05-20T20:00:07.938Z,75.50
2019-05-20T20:02:36.364Z,75.40
2019-05-20T20:05:08.183Z,75.70
2019-05-20T20:07:36.591Z,75.70
2019-05-20T20:10:06.276Z,75.50
2019-05-20T20:12:35.094Z,75.80
2019-05-20T20:15:04.525Z,75.80
2019-05-20T20:17:32.933Z,75.70
2019-05-20T20:20:01.361Z,75.70
2019-05-20T20:22:29.778Z,75.80
2019-05-20T20:24:58.245Z,75.70
2019-05-20T20:27:26.976Z,75.70
2019-05-20T20:29:55.400Z,75.70
2019-05-20T20:32:37.513Z,76.10
2019-05-20T20:34:54.316Z,76.00
2019-05-20T20:37:23.035Z,76.10
2019-05-20T20:39:52.225Z,75.90
2019-05-20T20:42:20.706Z,76.10
2019-05-20T20:44:49.105Z,76.10
2019-05-20T20:47:17.747Z,76.30
2019-05-20T20:49:46.209Z,76.30
2019-05-20T20:52:14.956Z,76.40
2019-05-20T20:54:43.367Z,76.30
2019-05-20T20:57:11.870Z,76.40
2019-05-20T20:59:40.621Z,76.50
2019-05-20T21:02:09.238Z,76.60
2019-05-20T21:04:38.020Z,76.80
2019-05-20T21:07:06.498Z,77.00
2019-05-20T21:09:34.947Z,77.20
2019-05-20T21:12:04.270Z,77.20
2019-05-20T21:14:33.424Z,77.10
2019-05-20T21:17:02.566Z,77.00
2019-05-20T21:19:31.797Z,77.10
2019-05-20T21:22:01.191Z,77.00
2019-05-20T21:24:29.983Z,77.10
2019-05-20T21:26:58.610Z,77.30
2019-05-20T21:29:27.366Z,77.20
2019-05-20T21:31:56.049Z,77.00
2019-05-20T21:34:24.500Z,76.80
2019-05-20T21:36:53.225Z,76.80
2019-05-20T21:39:21.723Z,76.70
2019-05-20T21:41:50.145Z,76.70
2019-05-20T21:44:18.564Z,76.70
2019-05-20T21:46:47.272Z,76.60
2019-05-20T21:49:15.720Z,76.50
2019-05-20T21:51:44.129Z,76.50
2019-05-20T21:54:12.552Z,76.60
2019-05-20T21:56:41.216Z,76.60
2019-05-20T21:59:09.624Z,76.60
2019-05-20T22:01:38.327Z,76.70
2019-05-20T22:04:06.821Z,76.80
2019-05-20T22:06:35.221Z,76.70
2019-05-20T22:09:05.024Z,76.70
2019-05-20T22:11:33.806Z,76.70
2019-05-20T22:14:02.827Z,76.50
2019-05-20T22:16:31.517Z,76.50
2019-05-20T22:19:00.001Z,76.30
2019-05-20T22:21:36.392Z,76.30
2019-05-20T22:24:06.963Z,76.30
2019-05-20T22:26:35.385Z,76.40
2019-05-20T22:29:03.794Z,76.40
2019-05-20T22:31:32.533Z,76.40
2019-05-20T22:34:00.938Z,76.30
2019-05-20T22:36:29.353Z,76.50
2019-05-20T22:38:57.808Z,76.30
2019-05-20T22:41:26.218Z,76.30
2019-05-20T22:43:54.945Z,76.40
2019-05-20T22:46:23.437Z,76.40
2019-05-20T22:48:52.578Z,76.40
2019-05-20T22:51:21.314Z,76.50
2019-05-20T22:53:50.221Z,76.50
2019-05-20T22:56:18.699Z,76.40
2019-05-20T22:58:47.188Z,76.30
2019-05-20T23:01:15.622Z,76.30
2019-05-20T23:03:55.575Z,76.20
2019-05-20T23:06:14.869Z,76.30
2019-05-20T23:08:43.375Z,76.20
2019-05-20T23:11:12.048Z,76.20
2019-05-20T23:13:40.459Z,76.40
2019-05-20T23:16:09.223Z,76.50
2019-05-20T23:18:37.626Z,76.40
2019-05-20T23:21:06.035Z,76.50
2019-05-20T23:23:34.780Z,76.60
2019-05-20T23:26:04.323Z,76.50
2019-05-20T23:28:32.738Z,76.60
2019-05-20T23:31:01.814Z,76.50
2019-05-20T23:33:30.573Z,76.60
2019-05-20T23:35:59.263Z,76.50
2019-05-20T23:38:28.929Z,76.40
2019-05-20T23:40:57.330Z,76.40
2019-05-20T23:43:25.750Z,76.40
2019-05-20T23:45:54.530Z,76.50
2019-05-20T23:48:22.952Z,76.50
2019-05-20T23:50:51.708Z,76.50
2019-05-20T23:53:20.509Z,76.60
2019-05-20T23:55:48.901Z,76.50
2019-05-20T23:58:17.325Z,76.60
